sensor_id;sensor_type;location;lat;lon;timestamp;temperature;humidity
32787;DHT22;19139;49.372;8.580;2023-12-29T00:01:23;21.50;87.00
32787;DHT22;19139;49.372;8.580;2023-12-29T00:03:50;21.50;87.00
32787;DHT22;19139;49.372;8.580;2023-12-29T00:06:17;21.50;87.10
32787;DHT22;19139;49.372;8.580;2023-12-29T00:08:43;21.50;87.10
32787;DHT22;19139;49.372;8.580;2023-12-29T00:11:17;21.50;87.10
32787;DHT22;19139;49.372;8.580;2023-12-29T00:13:43;21.50;87.10
32787;DHT22;19139;49.372;8.580;2023-12-29T00:16:10;21.50;87.10
32787;DHT22;19139;49.372;8.580;2023-12-29T00:18:37;21.50;87.10
32787;DHT22;19139;49.372;8.580;2023-12-29T00:21:05;21.50;87.20
32787;DHT22;19139;49.372;8.580;2023-12-29T00:23:33;21.50;87.30
32787;DHT22;19139;49.372;8.580;2023-12-29T00:26:00;21.50;87.20
32787;DHT22;19139;49.372;8.580;2023-12-29T00:28:27;21.50;87.30
32787;DHT22;19139;49.372;8.580;2023-12-29T00:30:53;21.50;87.30
32787;DHT22;19139;49.372;8.580;2023-12-29T00:33:28;21.50;87.20
32787;DHT22;19139;49.372;8.580;2023-12-29T00:35:55;21.50;87.30
32787;DHT22;19139;49.372;8.580;2023-12-29T00:38:22;21.50;87.30
32787;DHT22;19139;49.372;8.580;2023-12-29T00:40:49;21.50;87.30
32787;DHT22;19139;49.372;8.580;2023-12-29T00:43:16;21.50;87.30
32787;DHT22;19139;49.372;8.580;2023-12-29T00:45:44;21.50;87.30
32787;DHT22;19139;49.372;8.580;2023-12-29T00:48:11;21.50;87.30
32787;DHT22;19139;49.372;8.580;2023-12-29T00:50:38;21.50;87.30
32787;DHT22;19139;49.372;8.580;2023-12-29T00:53:05;21.50;87.30
32787;DHT22;19139;49.372;8.580;2023-12-29T00:55:32;21.50;87.40
32787;DHT22;19139;49.372;8.580;2023-12-29T00:57:58;21.40;87.30
32787;DHT22;19139;49.372;8.580;2023-12-29T01:00:26;21.40;87.30
32787;DHT22;19139;49.372;8.580;2023-12-29T01:02:52;21.40;87.30
32787;DHT22;19139;49.372;8.580;2023-12-29T01:05:19;21.40;87.40
32787;DHT22;19139;49.372;8.580;2023-12-29T01:07:47;21.40;87.30
32787;DHT22;19139;49.372;8.580;2023-12-29T01:10:14;21.40;87.30
32787;DHT22;19139;49.372;8.580;2023-12-29T01:12:41;21.40;87.30
32787;DHT22;19139;49.372;8.580;2023-12-29T01:15:08;21.40;87.40
32787;DHT22;19139;49.372;8.580;2023-12-29T01:17:34;21.40;87.30
32787;DHT22;19139;49.372;8.580;2023-12-29T01:20:01;21.40;87.30
32787;DHT22;19139;49.372;8.580;2023-12-29T01:22:30;21.40;88.10
32787;DHT22;19139;49.372;8.580;2023-12-29T01:25:00;21.40;87.30
32787;DHT22;19139;49.372;8.580;2023-12-29T01:27:28;21.40;87.30
32787;DHT22;19139;49.372;8.580;2023-12-29T01:29:55;21.40;88.10
32787;DHT22;19139;49.372;8.580;2023-12-29T01:32:22;21.40;87.30
32787;DHT22;19139;49.372;8.580;2023-12-29T01:34:49;21.40;87.40
32787;DHT22;19139;49.372;8.580;2023-12-29T01:37:16;21.40;87.30
32787;DHT22;19139;49.372;8.580;2023-12-29T01:39:42;21.40;87.30
32787;DHT22;19139;49.372;8.580;2023-12-29T01:42:09;21.40;87.30
32787;DHT22;19139;49.372;8.580;2023-12-29T01:44:37;21.40;87.30
32787;DHT22;19139;49.372;8.580;2023-12-29T01:47:11;21.40;87.30
32787;DHT22;19139;49.372;8.580;2023-12-29T01:49:40;21.40;87.40
32787;DHT22;19139;49.372;8.580;2023-12-29T01:52:07;21.40;87.40
32787;DHT22;19139;49.372;8.580;2023-12-29T01:54:36;21.40;87.30
32787;DHT22;19139;49.372;8.580;2023-12-29T01:57:05;21.40;87.40
32787;DHT22;19139;49.372;8.580;2023-12-29T01:59:32;21.30;87.40
32787;DHT22;19139;49.372;8.580;2023-12-29T02:01:59;21.30;87.30
32787;DHT22;19139;49.372;8.580;2023-12-29T02:04:27;21.40;87.50
32787;DHT22;19139;49.372;8.580;2023-12-29T02:06:55;21.30;87.40
32787;DHT22;19139;49.372;8.580;2023-12-29T02:09:22;21.30;87.50
32787;DHT22;19139;49.372;8.580;2023-12-29T02:11:49;21.30;87.50
32787;DHT22;19139;49.372;8.580;2023-12-29T02:14:16;21.30;87.50
32787;DHT22;19139;49.372;8.580;2023-12-29T02:17:00;21.30;87.50
32787;DHT22;19139;49.372;8.580;2023-12-29T02:19:41;21.30;87.50
32787;DHT22;19139;49.372;8.580;2023-12-29T02:22:10;21.30;87.50
32787;DHT22;19139;49.372;8.580;2023-12-29T02:24:38;21.30;87.50
32787;DHT22;19139;49.372;8.580;2023-12-29T02:32:39;21.30;87.50
32787;DHT22;19139;49.372;8.580;2023-12-29T02:35:09;21.30;87.60
32787;DHT22;19139;49.372;8.580;2023-12-29T02:37:39;21.30;87.60
32787;DHT22;19139;49.372;8.580;2023-12-29T02:40:07;21.20;87.60
32787;DHT22;19139;49.372;8.580;2023-12-29T02:42:34;21.20;87.60
32787;DHT22;19139;49.372;8.580;2023-12-29T02:45:02;21.20;87.60
32787;DHT22;19139;49.372;8.580;2023-12-29T02:47:29;21.20;87.60
32787;DHT22;19139;49.372;8.580;2023-12-29T02:49:55;21.20;87.60
32787;DHT22;19139;49.372;8.580;2023-12-29T02:52:22;21.20;87.60
32787;DHT22;19139;49.372;8.580;2023-12-29T02:54:49;21.20;87.60
32787;DHT22;19139;49.372;8.580;2023-12-29T02:57:16;21.20;87.60
32787;DHT22;19139;49.372;8.580;2023-12-29T02:59:42;21.20;87.60
32787;DHT22;19139;49.372;8.580;2023-12-29T03:02:09;21.20;87.60
32787;DHT22;19139;49.372;8.580;2023-12-29T03:04:36;21.20;87.60
32787;DHT22;19139;49.372;8.580;2023-12-29T03:07:02;21.20;87.70
32787;DHT22;19139;49.372;8.580;2023-12-29T03:09:29;21.20;87.70
32787;DHT22;19139;49.372;8.580;2023-12-29T03:11:56;21.20;87.70
32787;DHT22;19139;49.372;8.580;2023-12-29T03:14:22;21.20;87.80
32787;DHT22;19139;49.372;8.580;2023-12-29T03:16:49;21.20;87.70
32787;DHT22;19139;49.372;8.580;2023-12-29T03:19:16;21.20;88.60
32787;DHT22;19139;49.372;8.580;2023-12-29T03:21:43;21.20;87.80
32787;DHT22;19139;49.372;8.580;2023-12-29T03:24:10;21.20;87.80
32787;DHT22;19139;49.372;8.580;2023-12-29T03:26:36;21.20;87.80
32787;DHT22;19139;49.372;8.580;2023-12-29T03:29:03;21.20;87.80
32787;DHT22;19139;49.372;8.580;2023-12-29T03:31:30;21.20;87.80
32787;DHT22;19139;49.372;8.580;2023-12-29T03:33:56;21.10;87.80
32787;DHT22;19139;49.372;8.580;2023-12-29T03:36:23;21.20;87.80
32787;DHT22;19139;49.372;8.580;2023-12-29T03:38:50;21.20;87.80
32787;DHT22;19139;49.372;8.580;2023-12-29T03:41:16;21.10;87.80
32787;DHT22;19139;49.372;8.580;2023-12-29T03:43:43;21.10;87.80
32787;DHT22;19139;49.372;8.580;2023-12-29T03:46:19;21.10;87.80
32787;DHT22;19139;49.372;8.580;2023-12-29T03:48:47;21.20;87.80
32787;DHT22;19139;49.372;8.580;2023-12-29T03:51:15;21.10;87.80
32787;DHT22;19139;49.372;8.580;2023-12-29T03:53:42;21.10;87.80
32787;DHT22;19139;49.372;8.580;2023-12-29T03:56:17;21.10;87.80
32787;DHT22;19139;49.372;8.580;2023-12-29T03:58:45;21.10;87.90
32787;DHT22;19139;49.372;8.580;2023-12-29T04:01:16;21.10;87.90
32787;DHT22;19139;49.372;8.580;2023-12-29T04:03:43;21.10;87.90
32787;DHT22;19139;49.372;8.580;2023-12-29T04:06:10;21.10;87.90
32787;DHT22;19139;49.372;8.580;2023-12-29T04:08:38;21.10;87.90
32787;DHT22;19139;49.372;8.580;2023-12-29T04:11:05;21.10;87.90
32787;DHT22;19139;49.372;8.580;2023-12-29T04:13:32;21.10;88.00
32787;DHT22;19139;49.372;8.580;2023-12-29T04:15:59;21.10;88.00
32787;DHT22;19139;49.372;8.580;2023-12-29T04:18:26;21.10;88.00
32787;DHT22;19139;49.372;8.580;2023-12-29T04:20:53;21.10;88.00
32787;DHT22;19139;49.372;8.580;2023-12-29T04:23:20;21.10;88.00
32787;DHT22;19139;49.372;8.580;2023-12-29T04:25:46;21.10;88.00
32787;DHT22;19139;49.372;8.580;2023-12-29T04:28:13;21.10;88.10
32787;DHT22;19139;49.372;8.580;2023-12-29T04:30:40;21.10;88.00
32787;DHT22;19139;49.372;8.580;2023-12-29T04:33:07;21.10;88.10
32787;DHT22;19139;49.372;8.580;2023-12-29T04:35:33;21.10;88.00
32787;DHT22;19139;49.372;8.580;2023-12-29T04:38:00;21.10;88.10
32787;DHT22;19139;49.372;8.580;2023-12-29T04:40:27;21.10;88.10
32787;DHT22;19139;49.372;8.580;2023-12-29T04:42:54;21.10;88.10
32787;DHT22;19139;49.372;8.580;2023-12-29T04:45:21;21.10;88.00
32787;DHT22;19139;49.372;8.580;2023-12-29T04:47:47;21.10;88.10
32787;DHT22;19139;49.372;8.580;2023-12-29T04:50:14;21.10;88.10
32787;DHT22;19139;49.372;8.580;2023-12-29T04:52:41;21.10;88.10
32787;DHT22;19139;49.372;8.580;2023-12-29T04:55:08;21.00;88.00
32787;DHT22;19139;49.372;8.580;2023-12-29T04:57:35;21.10;88.00
32787;DHT22;19139;49.372;8.580;2023-12-29T05:00:02;21.10;88.00
32787;DHT22;19139;49.372;8.580;2023-12-29T05:02:29;21.00;88.00
32787;DHT22;19139;49.372;8.580;2023-12-29T05:04:55;21.10;88.00
32787;DHT22;19139;49.372;8.580;2023-12-29T05:07:24;21.10;88.10
32787;DHT22;19139;49.372;8.580;2023-12-29T05:09:50;21.10;88.10
32787;DHT22;19139;49.372;8.580;2023-12-29T05:12:17;21.00;88.00
32787;DHT22;19139;49.372;8.580;2023-12-29T05:14:44;21.00;88.00
32787;DHT22;19139;49.372;8.580;2023-12-29T05:17:10;21.00;88.10
32787;DHT22;19139;49.372;8.580;2023-12-29T05:19:37;21.00;88.10
32787;DHT22;19139;49.372;8.580;2023-12-29T05:22:04;21.00;88.20
32787;DHT22;19139;49.372;8.580;2023-12-29T05:24:31;21.00;88.10
32787;DHT22;19139;49.372;8.580;2023-12-29T05:26:58;21.00;88.20
32787;DHT22;19139;49.372;8.580;2023-12-29T05:29:24;21.00;88.20
32787;DHT22;19139;49.372;8.580;2023-12-29T05:31:51;21.00;88.20
32787;DHT22;19139;49.372;8.580;2023-12-29T05:34:18;21.00;88.20
32787;DHT22;19139;49.372;8.580;2023-12-29T05:36:44;21.00;88.20
32787;DHT22;19139;49.372;8.580;2023-12-29T05:39:15;20.90;88.10
32787;DHT22;19139;49.372;8.580;2023-12-29T05:41:42;21.00;88.20
32787;DHT22;19139;49.372;8.580;2023-12-29T05:44:09;21.00;88.20
32787;DHT22;19139;49.372;8.580;2023-12-29T05:46:35;21.00;88.20
32787;DHT22;19139;49.372;8.580;2023-12-29T05:49:02;21.00;88.20
32787;DHT22;19139;49.372;8.580;2023-12-29T05:51:29;21.00;88.30
32787;DHT22;19139;49.372;8.580;2023-12-29T05:53:56;21.00;88.20
32787;DHT22;19139;49.372;8.580;2023-12-29T05:56:22;21.00;88.20
32787;DHT22;19139;49.372;8.580;2023-12-29T05:58:51;21.00;88.20
32787;DHT22;19139;49.372;8.580;2023-12-29T06:01:19;20.90;88.20
32787;DHT22;19139;49.372;8.580;2023-12-29T06:03:45;20.90;88.20
32787;DHT22;19139;49.372;8.580;2023-12-29T06:06:12;20.90;88.20
32787;DHT22;19139;49.372;8.580;2023-12-29T06:08:39;20.90;88.20
32787;DHT22;19139;49.372;8.580;2023-12-29T06:11:06;20.90;88.20
32787;DHT22;19139;49.372;8.580;2023-12-29T06:13:33;20.90;88.20
32787;DHT22;19139;49.372;8.580;2023-12-29T06:15:59;20.90;88.20
32787;DHT22;19139;49.372;8.580;2023-12-29T06:18:26;20.90;88.20
32787;DHT22;19139;49.372;8.580;2023-12-29T06:20:53;20.90;88.30
32787;DHT22;19139;49.372;8.580;2023-12-29T06:23:20;20.90;88.20
32787;DHT22;19139;49.372;8.580;2023-12-29T06:25:47;20.90;88.20
32787;DHT22;19139;49.372;8.580;2023-12-29T06:28:13;20.90;88.20
32787;DHT22;19139;49.372;8.580;2023-12-29T06:30:40;20.90;88.30
32787;DHT22;19139;49.372;8.580;2023-12-29T06:33:07;20.90;88.20
32787;DHT22;19139;49.372;8.580;2023-12-29T06:35:34;20.90;88.20
32787;DHT22;19139;49.372;8.580;2023-12-29T06:38:01;20.90;88.20
32787;DHT22;19139;49.372;8.580;2023-12-29T06:40:28;20.90;88.30
32787;DHT22;19139;49.372;8.580;2023-12-29T06:42:55;20.80;88.20
32787;DHT22;19139;49.372;8.580;2023-12-29T06:45:21;20.90;88.30
32787;DHT22;19139;49.372;8.580;2023-12-29T06:47:48;20.90;88.30
32787;DHT22;19139;49.372;8.580;2023-12-29T06:50:15;20.90;88.30
32787;DHT22;19139;49.372;8.580;2023-12-29T06:52:42;20.90;88.30
32787;DHT22;19139;49.372;8.580;2023-12-29T06:55:09;20.80;88.20
32787;DHT22;19139;49.372;8.580;2023-12-29T06:57:36;20.80;88.20
32787;DHT22;19139;49.372;8.580;2023-12-29T07:00:04;20.80;88.30
32787;DHT22;19139;49.372;8.580;2023-12-29T07:02:31;20.80;88.30
32787;DHT22;19139;49.372;8.580;2023-12-29T07:04:57;20.80;88.40
32787;DHT22;19139;49.372;8.580;2023-12-29T07:07:24;20.80;88.40
32787;DHT22;19139;49.372;8.580;2023-12-29T07:09:51;20.80;88.30
32787;DHT22;19139;49.372;8.580;2023-12-29T07:12:18;20.80;88.30
32787;DHT22;19139;49.372;8.580;2023-12-29T07:14:45;20.80;88.40
32787;DHT22;19139;49.372;8.580;2023-12-29T07:17:12;20.80;88.40
32787;DHT22;19139;49.372;8.580;2023-12-29T07:19:39;20.80;88.40
32787;DHT22;19139;49.372;8.580;2023-12-29T07:22:06;20.80;88.40
32787;DHT22;19139;49.372;8.580;2023-12-29T07:24:35;20.80;88.30
32787;DHT22;19139;49.372;8.580;2023-12-29T07:27:03;20.80;88.40
32787;DHT22;19139;49.372;8.580;2023-12-29T07:29:31;20.80;88.40
32787;DHT22;19139;49.372;8.580;2023-12-29T07:31:57;20.80;88.40
32787;DHT22;19139;49.372;8.580;2023-12-29T07:34:25;20.80;89.20
32787;DHT22;19139;49.372;8.580;2023-12-29T07:36:52;20.80;88.40
32787;DHT22;19139;49.372;8.580;2023-12-29T07:39:20;20.80;88.40
32787;DHT22;19139;49.372;8.580;2023-12-29T07:41:46;20.80;88.40
32787;DHT22;19139;49.372;8.580;2023-12-29T07:44:15;20.80;88.90
32787;DHT22;19139;49.372;8.580;2023-12-29T07:46:42;20.80;88.40
32787;DHT22;19139;49.372;8.580;2023-12-29T07:49:09;20.80;88.40
32787;DHT22;19139;49.372;8.580;2023-12-29T07:51:40;20.80;88.40
32787;DHT22;19139;49.372;8.580;2023-12-29T07:54:07;20.80;88.40
32787;DHT22;19139;49.372;8.580;2023-12-29T07:56:34;20.80;88.40
32787;DHT22;19139;49.372;8.580;2023-12-29T07:59:03;20.70;88.30
32787;DHT22;19139;49.372;8.580;2023-12-29T08:01:30;20.80;88.40
32787;DHT22;19139;49.372;8.580;2023-12-29T08:03:57;20.80;88.40
32787;DHT22;19139;49.372;8.580;2023-12-29T08:06:24;20.80;88.40
32787;DHT22;19139;49.372;8.580;2023-12-29T08:08:50;20.80;89.20
32787;DHT22;19139;49.372;8.580;2023-12-29T08:11:17;20.80;88.40
32787;DHT22;19139;49.372;8.580;2023-12-29T08:13:47;20.80;88.40
32787;DHT22;19139;49.372;8.580;2023-12-29T08:16:14;20.80;88.40
32787;DHT22;19139;49.372;8.580;2023-12-29T08:18:40;20.80;88.30
32787;DHT22;19139;49.372;8.580;2023-12-29T08:21:07;20.80;88.30
32787;DHT22;19139;49.372;8.580;2023-12-29T08:23:34;20.80;88.30
32787;DHT22;19139;49.372;8.580;2023-12-29T08:26:02;20.80;88.30
32787;DHT22;19139;49.372;8.580;2023-12-29T08:28:29;20.80;88.30
32787;DHT22;19139;49.372;8.580;2023-12-29T08:30:55;20.80;88.40
32787;DHT22;19139;49.372;8.580;2023-12-29T08:33:23;20.80;88.40
32787;DHT22;19139;49.372;8.580;2023-12-29T08:35:49;20.80;88.30
32787;DHT22;19139;49.372;8.580;2023-12-29T08:38:16;20.80;88.30
32787;DHT22;19139;49.372;8.580;2023-12-29T08:40:43;20.80;88.30
32787;DHT22;19139;49.372;8.580;2023-12-29T08:43:09;20.80;88.30
32787;DHT22;19139;49.372;8.580;2023-12-29T08:45:36;20.80;88.40
32787;DHT22;19139;49.372;8.580;2023-12-29T08:48:05;20.70;88.20
32787;DHT22;19139;49.372;8.580;2023-12-29T08:50:32;20.80;88.30
32787;DHT22;19139;49.372;8.580;2023-12-29T08:52:59;20.70;88.30
32787;DHT22;19139;49.372;8.580;2023-12-29T08:55:25;20.80;89.20
32787;DHT22;19139;49.372;8.580;2023-12-29T08:57:52;20.80;88.40
32787;DHT22;19139;49.372;8.580;2023-12-29T09:00:19;20.80;88.40
32787;DHT22;19139;49.372;8.580;2023-12-29T09:02:45;20.80;88.40
32787;DHT22;19139;49.372;8.580;2023-12-29T09:05:14;20.80;88.40
32787;DHT22;19139;49.372;8.580;2023-12-29T09:07:41;20.80;88.40
32787;DHT22;19139;49.372;8.580;2023-12-29T09:10:08;20.80;88.40
32787;DHT22;19139;49.372;8.580;2023-12-29T09:12:37;20.80;88.40
32787;DHT22;19139;49.372;8.580;2023-12-29T09:15:05;20.80;88.40
32787;DHT22;19139;49.372;8.580;2023-12-29T09:17:33;20.80;88.40
32787;DHT22;19139;49.372;8.580;2023-12-29T09:20:00;20.80;88.40
32787;DHT22;19139;49.372;8.580;2023-12-29T09:22:36;20.80;88.40
32787;DHT22;19139;49.372;8.580;2023-12-29T09:25:03;20.80;88.20
32787;DHT22;19139;49.372;8.580;2023-12-29T09:27:30;20.50;87.90
32787;DHT22;19139;49.372;8.580;2023-12-29T09:29:57;20.10;88.10
32787;DHT22;19139;49.372;8.580;2023-12-29T09:32:23;19.80;88.90
32787;DHT22;19139;49.372;8.580;2023-12-29T09:34:50;19.60;89.10
32787;DHT22;19139;49.372;8.580;2023-12-29T09:37:17;19.50;89.50
32787;DHT22;19139;49.372;8.580;2023-12-29T09:39:44;19.30;89.80
32787;DHT22;19139;49.372;8.580;2023-12-29T09:42:19;19.30;90.00
32787;DHT22;19139;49.372;8.580;2023-12-29T09:44:49;19.20;90.10
32787;DHT22;19139;49.372;8.580;2023-12-29T09:47:22;19.20;90.10
32787;DHT22;19139;49.372;8.580;2023-12-29T09:49:51;19.10;90.20
32787;DHT22;19139;49.372;8.580;2023-12-29T09:52:22;19.00;90.20
32787;DHT22;19139;49.372;8.580;2023-12-29T09:54:52;19.00;90.30
32787;DHT22;19139;49.372;8.580;2023-12-29T09:57:20;18.90;90.30
32787;DHT22;19139;49.372;8.580;2023-12-29T09:59:49;18.90;90.40
32787;DHT22;19139;49.372;8.580;2023-12-29T10:02:20;18.80;90.40
32787;DHT22;19139;49.372;8.580;2023-12-29T10:04:48;18.80;90.50
32787;DHT22;19139;49.372;8.580;2023-12-29T10:07:23;18.80;90.50
32787;DHT22;19139;49.372;8.580;2023-12-29T10:09:53;18.70;90.50
32787;DHT22;19139;49.372;8.580;2023-12-29T10:12:21;18.70;90.50
32787;DHT22;19139;49.372;8.580;2023-12-29T10:14:53;18.70;90.60
32787;DHT22;19139;49.372;8.580;2023-12-29T10:17:27;18.90;90.60
32787;DHT22;19139;49.372;8.580;2023-12-29T10:23:05;19.20;90.30
32787;DHT22;19139;49.372;8.580;2023-12-29T10:25:35;19.40;90.20
32787;DHT22;19139;49.372;8.580;2023-12-29T10:28:02;19.60;90.40
32787;DHT22;19139;49.372;8.580;2023-12-29T10:30:30;19.70;90.20
32787;DHT22;19139;49.372;8.580;2023-12-29T10:33:01;19.80;90.20
32787;DHT22;19139;49.372;8.580;2023-12-29T10:35:30;19.80;90.30
32787;DHT22;19139;49.372;8.580;2023-12-29T10:38:08;19.90;90.20
32787;DHT22;19139;49.372;8.580;2023-12-29T10:40:36;20.00;90.20
32787;DHT22;19139;49.372;8.580;2023-12-29T10:43:03;20.10;90.30
32787;DHT22;19139;49.372;8.580;2023-12-29T10:45:36;20.10;90.30
32787;DHT22;19139;49.372;8.580;2023-12-29T10:48:04;20.10;90.10
32787;DHT22;19139;49.372;8.580;2023-12-29T10:50:45;20.20;90.20
32787;DHT22;19139;49.372;8.580;2023-12-29T10:53:15;20.20;90.30
32787;DHT22;19139;49.372;8.580;2023-12-29T10:55:45;20.20;90.20
32787;DHT22;19139;49.372;8.580;2023-12-29T10:58:12;20.30;90.10
32787;DHT22;19139;49.372;8.580;2023-12-29T11:00:42;20.30;90.10
32787;DHT22;19139;49.372;8.580;2023-12-29T11:03:17;20.30;90.00
32787;DHT22;19139;49.372;8.580;2023-12-29T11:05:43;20.40;90.00
32787;DHT22;19139;49.372;8.580;2023-12-29T11:08:20;20.40;89.90
32787;DHT22;19139;49.372;8.580;2023-12-29T11:10:50;20.40;90.10
32787;DHT22;19139;49.372;8.580;2023-12-29T11:13:17;20.40;89.80
32787;DHT22;19139;49.372;8.580;2023-12-29T11:15:46;20.40;89.70
32787;DHT22;19139;49.372;8.580;2023-12-29T11:18:15;20.40;89.70
32787;DHT22;19139;49.372;8.580;2023-12-29T11:20:44;20.40;89.60
32787;DHT22;19139;49.372;8.580;2023-12-29T11:23:11;20.40;89.60
32787;DHT22;19139;49.372;8.580;2023-12-29T11:25:44;20.40;89.50
32787;DHT22;19139;49.372;8.580;2023-12-29T11:28:12;20.40;89.50
32787;DHT22;19139;49.372;8.580;2023-12-29T11:30:39;20.40;89.40
32787;DHT22;19139;49.372;8.580;2023-12-29T11:33:22;20.40;89.40
32787;DHT22;19139;49.372;8.580;2023-12-29T11:35:54;20.40;89.30
32787;DHT22;19139;49.372;8.580;2023-12-29T11:39:01;20.50;89.40
32787;DHT22;19139;49.372;8.580;2023-12-29T11:42:12;20.50;89.30
32787;DHT22;19139;49.372;8.580;2023-12-29T11:44:40;20.50;89.20
32787;DHT22;19139;49.372;8.580;2023-12-29T11:47:33;20.50;88.90
32787;DHT22;19139;49.372;8.580;2023-12-29T11:50:02;20.20;87.50
32787;DHT22;19139;49.372;8.580;2023-12-29T11:52:36;19.90;87.50
32787;DHT22;19139;49.372;8.580;2023-12-29T11:55:13;20.00;87.30
32787;DHT22;19139;49.372;8.580;2023-12-29T11:57:41;20.10;86.20
32787;DHT22;19139;49.372;8.580;2023-12-29T12:00:09;20.10;86.00
32787;DHT22;19139;49.372;8.580;2023-12-29T12:02:36;20.10;86.60
32787;DHT22;19139;49.372;8.580;2023-12-29T12:05:03;20.30;86.80
32787;DHT22;19139;49.372;8.580;2023-12-29T12:12:49;20.50;87.90
32787;DHT22;19139;49.372;8.580;2023-12-29T12:18:01;20.60;87.80
32787;DHT22;19139;49.372;8.580;2023-12-29T12:20:31;20.60;87.70
32787;DHT22;19139;49.372;8.580;2023-12-29T12:25:27;20.60;87.60
32787;DHT22;19139;49.372;8.580;2023-12-29T12:27:57;20.60;87.60
32787;DHT22;19139;49.372;8.580;2023-12-29T12:30:24;20.60;87.50
32787;DHT22;19139;49.372;8.580;2023-12-29T12:32:58;20.60;87.60
32787;DHT22;19139;49.372;8.580;2023-12-29T12:35:26;20.60;87.60
32787;DHT22;19139;49.372;8.580;2023-12-29T12:38:13;20.60;88.50
32787;DHT22;19139;49.372;8.580;2023-12-29T12:40:41;20.60;87.80
32787;DHT22;19139;49.372;8.580;2023-12-29T12:43:07;20.60;87.80
32787;DHT22;19139;49.372;8.580;2023-12-29T12:45:42;20.60;88.00
32787;DHT22;19139;49.372;8.580;2023-12-29T12:48:24;20.60;88.00
32787;DHT22;19139;49.372;8.580;2023-12-29T12:50:55;20.60;88.00
32787;DHT22;19139;49.372;8.580;2023-12-29T12:53:23;20.60;88.00
32787;DHT22;19139;49.372;8.580;2023-12-29T12:55:50;20.60;88.10
32787;DHT22;19139;49.372;8.580;2023-12-29T12:58:19;20.60;88.10
32787;DHT22;19139;49.372;8.580;2023-12-29T13:00:50;20.60;88.20
32787;DHT22;19139;49.372;8.580;2023-12-29T13:03:21;20.60;88.20
32787;DHT22;19139;49.372;8.580;2023-12-29T13:05:48;20.60;88.10
32787;DHT22;19139;49.372;8.580;2023-12-29T13:08:16;20.60;88.20
32787;DHT22;19139;49.372;8.580;2023-12-29T13:10:59;20.60;88.20
32787;DHT22;19139;49.372;8.580;2023-12-29T13:13:39;20.60;88.20
32787;DHT22;19139;49.372;8.580;2023-12-29T13:16:06;20.60;88.20
32787;DHT22;19139;49.372;8.580;2023-12-29T13:18:33;20.60;88.20
32787;DHT22;19139;49.372;8.580;2023-12-29T13:21:02;20.60;88.20
32787;DHT22;19139;49.372;8.580;2023-12-29T13:23:28;20.60;88.20
32787;DHT22;19139;49.372;8.580;2023-12-29T13:26:02;20.60;88.20
32787;DHT22;19139;49.372;8.580;2023-12-29T13:28:29;20.60;88.20
32787;DHT22;19139;49.372;8.580;2023-12-29T13:30:57;20.60;88.20
32787;DHT22;19139;49.372;8.580;2023-12-29T13:33:49;20.60;88.20
32787;DHT22;19139;49.372;8.580;2023-12-29T13:36:54;20.60;88.20
32787;DHT22;19139;49.372;8.580;2023-12-29T13:42:41;20.60;88.20
32787;DHT22;19139;49.372;8.580;2023-12-29T13:45:09;20.60;88.30
32787;DHT22;19139;49.372;8.580;2023-12-29T13:47:37;20.60;88.20
32787;DHT22;19139;49.372;8.580;2023-12-29T13:50:05;20.60;88.20
32787;DHT22;19139;49.372;8.580;2023-12-29T13:52:36;20.60;88.20
32787;DHT22;19139;49.372;8.580;2023-12-29T13:55:04;20.60;88.20
32787;DHT22;19139;49.372;8.580;2023-12-29T13:57:34;20.60;88.20
32787;DHT22;19139;49.372;8.580;2023-12-29T14:00:18;20.60;88.20
32787;DHT22;19139;49.372;8.580;2023-12-29T14:02:58;20.60;88.30
32787;DHT22;19139;49.372;8.580;2023-12-29T14:05:32;20.60;88.30
32787;DHT22;19139;49.372;8.580;2023-12-29T14:08:07;20.60;88.30
32787;DHT22;19139;49.372;8.580;2023-12-29T14:10:36;20.50;88.30
32787;DHT22;19139;49.372;8.580;2023-12-29T14:13:14;20.60;88.30
32787;DHT22;19139;49.372;8.580;2023-12-29T14:15:42;20.50;88.30
32787;DHT22;19139;49.372;8.580;2023-12-29T14:20:48;20.60;88.20
32787;DHT22;19139;49.372;8.580;2023-12-29T14:23:17;20.50;88.30
32787;DHT22;19139;49.372;8.580;2023-12-29T14:25:44;20.60;89.10
32787;DHT22;19139;49.372;8.580;2023-12-29T14:28:17;20.50;88.30
32787;DHT22;19139;49.372;8.580;2023-12-29T14:30:45;20.50;88.30
32787;DHT22;19139;49.372;8.580;2023-12-29T14:33:12;20.50;88.30
32787;DHT22;19139;49.372;8.580;2023-12-29T14:35:39;20.50;88.30
32787;DHT22;19139;49.372;8.580;2023-12-29T14:38:05;20.50;88.30
32787;DHT22;19139;49.372;8.580;2023-12-29T14:40:32;20.50;88.30
32787;DHT22;19139;49.372;8.580;2023-12-29T14:43:02;20.60;88.30
32787;DHT22;19139;49.372;8.580;2023-12-29T14:45:29;20.50;88.30
32787;DHT22;19139;49.372;8.580;2023-12-29T14:47:58;20.60;88.30
32787;DHT22;19139;49.372;8.580;2023-12-29T14:50:25;20.50;88.30
32787;DHT22;19139;49.372;8.580;2023-12-29T14:52:52;20.50;88.30
32787;DHT22;19139;49.372;8.580;2023-12-29T14:55:19;20.50;88.30
32787;DHT22;19139;49.372;8.580;2023-12-29T14:57:47;20.50;88.30
32787;DHT22;19139;49.372;8.580;2023-12-29T15:00:14;20.50;88.30
32787;DHT22;19139;49.372;8.580;2023-12-29T15:02:42;20.50;88.30
32787;DHT22;19139;49.372;8.580;2023-12-29T15:05:09;20.50;88.40
32787;DHT22;19139;49.372;8.580;2023-12-29T15:07:36;20.50;89.20
32787;DHT22;19139;49.372;8.580;2023-12-29T15:10:03;20.50;88.40
32787;DHT22;19139;49.372;8.580;2023-12-29T15:12:29;20.50;88.50
32787;DHT22;19139;49.372;8.580;2023-12-29T15:14:57;20.40;88.40
32787;DHT22;19139;49.372;8.580;2023-12-29T15:17:24;20.40;88.40
32787;DHT22;19139;49.372;8.580;2023-12-29T15:19:51;20.40;88.50
32787;DHT22;19139;49.372;8.580;2023-12-29T15:22:17;20.40;88.50
32787;DHT22;19139;49.372;8.580;2023-12-29T15:24:46;20.40;88.50
32787;DHT22;19139;49.372;8.580;2023-12-29T15:27:12;20.40;88.50
32787;DHT22;19139;49.372;8.580;2023-12-29T15:29:39;20.40;88.60
32787;DHT22;19139;49.372;8.580;2023-12-29T15:32:06;20.30;88.50
32787;DHT22;19139;49.372;8.580;2023-12-29T15:34:33;20.40;88.60
32787;DHT22;19139;49.372;8.580;2023-12-29T15:37:00;20.40;88.70
32787;DHT22;19139;49.372;8.580;2023-12-29T15:39:26;20.30;88.60
32787;DHT22;19139;49.372;8.580;2023-12-29T15:41:53;20.30;88.70
32787;DHT22;19139;49.372;8.580;2023-12-29T15:44:20;20.30;88.70
32787;DHT22;19139;49.372;8.580;2023-12-29T15:46:47;20.30;88.70
32787;DHT22;19139;49.372;8.580;2023-12-29T15:49:13;20.30;88.70
32787;DHT22;19139;49.372;8.580;2023-12-29T15:51:40;20.30;88.70
32787;DHT22;19139;49.372;8.580;2023-12-29T15:54:07;20.30;88.70
32787;DHT22;19139;49.372;8.580;2023-12-29T15:56:34;20.30;88.80
32787;DHT22;19139;49.372;8.580;2023-12-29T15:59:00;20.30;88.70
32787;DHT22;19139;49.372;8.580;2023-12-29T16:01:27;20.30;88.70
32787;DHT22;19139;49.372;8.580;2023-12-29T16:03:55;20.30;88.70